Hauptseite
METAR-TAF:

METAR-TAF

Flughäfen :

Flughafen Sliač

Banská Bystrica, Slowakei

Breite: 48-38-17N, Länge: 019-08-03E, Höhe: 318 m

METAR: fehlend

Zeit: 20:39 (18:39 UTC)

Prognose

Neuester Wetterbericht von vor 5 Stunden und 9 Minuten, um 13:30 UTC
Gültige Prognose vom 30 um 15 UTC bis 30 um 24 UTC
Wind 2 kt aus unterschiedlichen Richtungen
Sichtweite 10 km oder mehr
Aufgelockert bewölkt in der Höhe von 4000 ft
Zeitweise
vom 30 um 15 UTC bis 30 um 18 UTC
Wind 10 kt aus Nord
Leicht bewölkt in der Höhe von 2500 ft, Kumulonimbus.
Durchbrochene Bewölkung in der Höhe von 4000 ft
Gewitter, Regen
Übergehend zu
vom 30 um 20 UTC bis 30 um 22 UTC
Sichtweite: 5000 m
Leicht bewölkt in der Höhe von 800 ft
feuchter Dunst,

TAF: LZSL 301330Z 3015/3024 VRB02KT 9999 SCT040 TEMPO 3015/3018 35010KT TSRA FEW025CB BKN040 BECMG 3020/3022 5000 BR FEW008

Wetterbeobachtungen und Prognosen von mehr als 4000 Flughäfen (METAR und TAF Bericht).

Die verfügbaren Stationen werden durch gelbe und rote Markierungen auf der Karte dargestellt.

Führen Sie die Maus auf sie, um den Namen der Station zu sehen.

Darauf klicken, um die Beobachtung von Wetterbeobachtungen und Prognosen zu sehen.

Um die Karte zu ändern : klicken Sie auf den grünen Tasten mit einem schwarzen Kreuz Zum Vergrößern, auf den grünen Button mit einem Gedankenstrich zu verkleinern, oder auf die grünen Pfeile für benachbarte Karten.


METAR-TAF: